Time;durP1;ratioP1;P1;durP2;ratioP2;P2;SDS_P1;SDS_P2;PMS_P1;PMS_P2;Temp;Humidity;BMP_temperature;BMP_pressure;BME280_temperature;BME280_humidity;BME280_pressure;Samples;Min_cycle;Max_cycle;Signal;HPM_P1;HPM_P2
2022/02/20 00:00:35;;;;;;;3.47;3.23;;;8.60;99.90;;;;;;5051158;28;20827;-67
2022/02/20 00:03:01;;;;;;;4.77;3.00;;;8.60;99.90;;;;;;5051406;28;20510;-68
2022/02/20 00:05:26;;;;;;;4.00;3.10;;;8.60;99.90;;;;;;5052909;28;20292;-69
2022/02/20 00:07:52;;;;;;;3.87;3.10;;;8.70;99.90;;;;;;5051971;28;20184;-69
2022/02/20 00:10:18;;;;;;;3.10;2.90;;;8.70;99.90;;;;;;5051937;28;20206;-69
2022/02/20 00:12:44;;;;;;;3.50;3.20;;;8.70;99.90;;;;;;5052905;28;20181;-68
2022/02/20 00:15:09;;;;;;;3.93;3.23;;;8.80;99.90;;;;;;5051760;28;20444;-68
2022/02/20 00:17:35;;;;;;;5.53;3.30;;;8.80;99.90;;;;;;5052958;28;20896;-68
2022/02/20 00:20:02;;;;;;;3.70;3.40;;;8.80;99.90;;;;;;5051752;28;20226;-69
2022/02/20 00:22:28;;;;;;;4.73;3.43;;;8.90;99.90;;;;;;5051668;28;20208;-68
2022/02/20 00:24:55;;;;;;;6.30;3.40;;;8.90;99.90;;;;;;5051949;28;20451;-69
2022/02/20 00:27:22;;;;;;;4.00;3.50;;;8.90;99.90;;;;;;5051496;28;20436;-70
2022/02/20 00:29:48;;;;;;;6.73;3.93;;;8.90;99.90;;;;;;5051046;28;20432;-79
2022/02/20 00:32:14;;;;;;;9.30;6.40;;;8.90;99.90;;;;;;5051922;28;20435;-68
2022/02/20 00:34:40;;;;;;;5.83;3.80;;;8.90;99.90;;;;;;5051688;28;20185;-68
2022/02/20 00:37:06;;;;;;;5.67;4.83;;;8.90;99.90;;;;;;5051255;28;20975;-68
2022/02/20 00:39:32;;;;;;;5.87;4.77;;;8.90;99.90;;;;;;5052627;28;20228;-68
2022/02/20 00:41:58;;;;;;;6.20;3.87;;;9.00;99.90;;;;;;5051966;28;20888;-69
2022/02/20 00:44:24;;;;;;;4.70;4.00;;;9.00;99.90;;;;;;5052359;28;20206;-69
2022/02/20 00:46:50;;;;;;;8.53;4.27;;;8.90;99.90;;;;;;5052157;28;20939;-84
2022/02/20 00:49:16;;;;;;;5.07;4.30;;;9.00;99.90;;;;;;5052390;28;20211;-69
2022/02/20 00:51:41;;;;;;;5.33;4.80;;;9.00;99.90;;;;;;5052688;28;20451;-68
2022/02/20 00:54:10;;;;;;;5.67;4.30;;;8.90;99.90;;;;;;5051750;28;20478;-69
2022/02/20 00:56:37;;;;;;;4.43;3.90;;;8.90;99.90;;;;;;5051884;28;20181;-67
2022/02/20 00:59:06;;;;;;;4.23;4.00;;;8.90;99.90;;;;;;5050874;28;20428;-68
2022/02/20 01:01:32;;;;;;;5.60;4.93;;;8.90;99.90;;;;;;5050618;28;20474;-69
2022/02/20 01:03:59;;;;;;;4.40;4.00;;;8.70;99.90;;;;;;5051063;28;20419;-68
2022/02/20 01:06:25;;;;;;;4.43;3.70;;;8.70;99.90;;;;;;5051289;28;20497;-68
2022/02/20 01:08:51;;;;;;;6.80;4.60;;;8.60;99.90;;;;;;5052159;28;20431;-83
2022/02/20 01:11:18;;;;;;;4.10;3.80;;;8.50;99.90;;;;;;5052848;28;20419;-69
2022/02/20 01:13:44;;;;;;;4.47;4.10;;;8.50;99.90;;;;;;5051778;28;20916;-69
2022/02/20 01:16:10;;;;;;;7.33;3.83;;;8.50;99.90;;;;;;5051727;28;20497;-69
2022/02/20 01:18:36;;;;;;;6.43;4.40;;;8.50;99.90;;;;;;5053443;28;20785;-68
2022/02/20 01:21:02;;;;;;;12.07;4.97;;;8.50;99.90;;;;;;5051482;28;20447;-69
2022/02/20 01:23:28;;;;;;;4.70;4.30;;;8.50;99.90;;;;;;5051822;28;20434;-69
2022/02/20 01:25:53;;;;;;;7.87;4.10;;;8.40;99.90;;;;;;5050839;28;20856;-85
2022/02/20 01:28:19;;;;;;;6.00;4.37;;;8.00;99.90;;;;;;5050868;28;20177;-69
2022/02/20 01:30:45;;;;;;;6.40;4.50;;;8.30;99.90;;;;;;5051745;28;20522;-69
2022/02/20 01:33:10;;;;;;;10.10;4.90;;;8.40;99.90;;;;;;5049754;28;20786;-71
2022/02/20 01:35:36;;;;;;;4.23;3.83;;;8.30;99.90;;;;;;5052534;28;20189;-68
2022/02/20 01:38:02;;;;;;;5.83;4.40;;;8.40;99.90;;;;;;5050895;28;20622;-69
2022/02/20 01:40:30;;;;;;;7.33;4.57;;;7.90;99.90;;;;;;5049903;28;20511;-69
2022/02/20 01:42:59;;;;;;;7.33;4.30;;;8.20;99.90;;;;;;5050955;28;20419;-70
2022/02/20 01:45:25;;;;;;;5.57;4.13;;;8.20;99.90;;;;;;5051390;28;20851;-68
2022/02/20 01:47:52;;;;;;;4.10;3.80;;;8.20;99.90;;;;;;5051193;28;20412;-77
2022/02/20 01:50:18;;;;;;;4.63;4.10;;;8.20;99.90;;;;;;5051142;28;20412;-69
2022/02/20 01:52:45;;;;;;;6.70;4.70;;;8.30;99.90;;;;;;5051648;28;20429;-69
2022/02/20 01:55:13;;;;;;;4.83;4.30;;;8.20;99.90;;;;;;5050998;28;21230;-69
2022/02/20 01:57:41;;;;;;;8.60;4.47;;;8.10;99.90;;;;;;5050240;28;20493;-69
2022/02/20 02:00:17;;;;;;;4.90;4.40;;;8.20;99.90;;;;;;5050852;28;20401;-69
2022/02/20 02:02:44;;;;;;;10.40;4.80;;;8.20;99.90;;;;;;5050393;28;20438;-69
2022/02/20 02:05:10;;;;;;;7.80;4.63;;;8.10;99.90;;;;;;5049488;28;20963;-69
2022/02/20 02:07:36;;;;;;;4.00;3.70;;;8.10;99.90;;;;;;5051909;28;20924;-69
2022/02/20 02:10:04;;;;;;;4.30;4.00;;;7.60;99.90;;;;;;5049513;28;20431;-69
2022/02/20 02:12:30;;;;;;;4.30;4.00;;;8.00;99.90;;;;;;5050232;28;20416;-69
2022/02/20 02:15:05;;;;;;;3.90;3.70;;;8.00;99.90;;;;;;5050683;28;20432;-76
2022/02/20 02:17:31;;;;;;;6.80;3.77;;;8.00;99.90;;;;;;5051139;28;20429;-69
2022/02/20 02:19:58;;;;;;;4.13;3.77;;;8.10;99.90;;;;;;5050653;28;20462;-76
2022/02/20 02:22:26;;;;;;;5.80;3.87;;;8.10;99.90;;;;;;5051244;28;20453;-69
2022/02/20 02:24:54;;;;;;;7.50;3.77;;;8.00;99.90;;;;;;5054724;28;20537;-69
2022/02/20 02:27:19;;;;;;;4.10;3.70;;;8.10;99.90;;;;;;5053293;28;20411;-69
2022/02/20 02:29:47;;;;;;;3.87;3.57;;;8.00;99.90;;;;;;5053613;28;20427;-71
2022/02/20 02:32:13;;;;;;;4.97;4.10;;;8.10;99.90;;;;;;5054177;28;20189;-69
2022/02/20 02:34:44;;;;;;;5.10;3.60;;;8.10;99.90;;;;;;5055068;28;20446;-69
2022/02/20 02:37:10;;;;;;;5.47;4.23;;;8.00;99.90;;;;;;5053864;28;20803;-69
2022/02/20 02:39:36;;;;;;;4.90;4.20;;;8.00;99.90;;;;;;5054704;28;20506;-69
2022/02/20 02:42:03;;;;;;;5.93;3.97;;;8.00;99.90;;;;;;5053722;28;20407;-69
2022/02/20 02:44:29;;;;;;;4.23;3.90;;;8.00;99.90;;;;;;5054848;28;20536;-69
2022/02/20 02:46:55;;;;;;;5.37;4.20;;;7.60;99.90;;;;;;5054350;28;20808;-75
2022/02/20 02:49:21;;;;;;;5.27;4.40;;;8.00;99.90;;;;;;5054080;28;20459;-69
2022/02/20 02:51:47;;;;;;;4.33;3.87;;;8.00;99.90;;;;;;5054680;28;20227;-69
2022/02/20 02:54:22;;;;;;;7.90;3.87;;;7.90;99.90;;;;;;5053399;28;20485;-69
2022/02/20 02:56:49;;;;;;;4.97;3.83;;;7.90;99.90;;;;;;5054523;28;20491;-69
2022/02/20 02:59:17;;;;;;;5.53;3.83;;;8.00;99.90;;;;;;5053649;28;20428;-69
2022/02/20 03:01:45;;;;;;;4.30;4.00;;;8.00;99.90;;;;;;5054104;28;20787;-69
2022/02/20 03:04:11;;;;;;;5.90;4.13;;;8.00;99.90;;;;;;5053279;28;20494;-70
2022/02/20 03:06:36;;;;;;;4.00;3.63;;;8.00;99.90;;;;;;5054014;28;20933;-69
2022/02/20 03:09:04;;;;;;;5.03;4.33;;;8.10;99.90;;;;;;5053040;28;20427;-69
2022/02/20 03:11:30;;;;;;;5.57;4.30;;;8.00;99.90;;;;;;5052895;28;20649;-72
2022/02/20 03:13:56;;;;;;;4.93;4.40;;;8.10;99.90;;;;;;5052377;28;20419;-69
2022/02/20 03:16:22;;;;;;;4.50;4.10;;;8.00;99.90;;;;;;5051883;28;20431;-70
2022/02/20 03:18:48;;;;;;;7.13;4.20;;;8.00;99.90;;;;;;5052669;28;20201;-69
2022/02/20 03:21:14;;;;;;;4.90;4.50;;;8.00;99.90;;;;;;5051545;28;20861;-69
2022/02/20 03:23:39;;;;;;;4.50;3.90;;;8.00;99.90;;;;;;5052663;28;20211;-70
2022/02/20 03:26:05;;;;;;;5.17;4.43;;;8.00;99.90;;;;;;5051683;28;20213;-69
2022/02/20 03:28:31;;;;;;;4.63;4.20;;;8.00;99.90;;;;;;5052360;28;20223;-69
2022/02/20 03:30:57;;;;;;;4.67;3.87;;;8.00;99.90;;;;;;5052209;28;20428;-74
2022/02/20 03:33:24;;;;;;;4.37;4.07;;;8.10;99.90;;;;;;5050939;28;20193;-70
2022/02/20 03:35:50;;;;;;;5.80;3.83;;;8.20;99.90;;;;;;5051819;28;20196;-71
2022/02/20 03:38:15;;;;;;;6.37;3.70;;;8.20;99.90;;;;;;5051353;28;20418;-69
2022/02/20 03:40:41;;;;;;;4.77;4.37;;;8.20;99.90;;;;;;5050650;28;20180;-71
2022/02/20 03:43:07;;;;;;;4.20;3.90;;;8.00;99.90;;;;;;5049584;28;20181;-70
2022/02/20 03:45:33;;;;;;;4.33;4.03;;;8.00;99.90;;;;;;5050896;28;20662;-70
2022/02/20 03:47:59;;;;;;;4.50;4.13;;;8.10;99.90;;;;;;5051919;28;20261;-77
2022/02/20 03:50:26;;;;;;;7.20;4.50;;;8.10;99.90;;;;;;5051598;28;20223;-69
2022/02/20 03:52:52;;;;;;;4.53;4.23;;;8.10;99.90;;;;;;5051723;28;20829;-70
2022/02/20 03:55:18;;;;;;;4.23;4.00;;;8.10;99.90;;;;;;5051422;28;21096;-69
2022/02/20 03:57:45;;;;;;;5.10;4.60;;;8.10;99.90;;;;;;5051234;28;20443;-69
2022/02/20 04:00:15;;;;;;;4.80;4.27;;;8.10;99.90;;;;;;5050869;28;20507;-70
2022/02/20 04:02:41;;;;;;;5.20;4.77;;;8.10;99.90;;;;;;5051762;28;20404;-69
2022/02/20 04:05:08;;;;;;;6.30;4.80;;;8.20;99.90;;;;;;5049923;28;20482;-69
2022/02/20 04:07:34;;;;;;;5.03;4.53;;;8.10;99.90;;;;;;5051747;28;20443;-70
2022/02/20 04:10:01;;;;;;;5.57;4.73;;;8.20;99.90;;;;;;5051304;28;20969;-75
2022/02/20 04:12:26;;;;;;;6.70;5.70;;;8.00;99.90;;;;;;5051494;28;20417;-70
2022/02/20 04:14:52;;;;;;;6.20;5.70;;;8.20;99.90;;;;;;5052365;28;20427;-70
2022/02/20 04:17:20;;;;;;;5.40;4.63;;;8.20;99.90;;;;;;5050795;28;20173;-69
2022/02/20 04:19:47;;;;;;;6.87;5.00;;;8.30;99.90;;;;;;5052677;28;20427;-69
2022/02/20 04:22:14;;;;;;;5.57;5.17;;;8.10;99.90;;;;;;5050918;28;20423;-69
2022/02/20 04:24:40;;;;;;;8.07;5.00;;;8.30;99.90;;;;;;5052709;28;20466;-69
2022/02/20 04:27:06;;;;;;;7.70;5.10;;;8.30;99.90;;;;;;5050576;28;20409;-69
2022/02/20 04:29:32;;;;;;;5.30;4.50;;;8.30;99.90;;;;;;5052445;28;20427;-69
2022/02/20 04:31:57;;;;;;;5.73;5.03;;;8.30;99.90;;;;;;5052964;28;20391;-69
2022/02/20 04:34:23;;;;;;;7.70;4.73;;;8.30;99.90;;;;;;5051970;28;20427;-69
2022/02/20 04:36:49;;;;;;;4.10;3.70;;;7.90;99.90;;;;;;5052643;28;20556;-69
2022/02/20 04:39:15;;;;;;;3.60;3.30;;;8.30;99.90;;;;;;5051764;28;20192;-69
2022/02/20 04:41:40;;;;;;;5.73;3.90;;;8.30;99.90;;;;;;5051950;28;20184;-69
2022/02/20 04:44:06;;;;;;;4.07;3.67;;;8.30;99.90;;;;;;5051602;28;20170;-69
2022/02/20 04:46:35;;;;;;;5.33;3.50;;;8.30;99.90;;;;;;5051981;28;20205;-69
2022/02/20 04:49:05;;;;;;;3.60;3.17;;;8.40;99.90;;;;;;5052160;28;20528;-76
2022/02/20 04:51:32;;;;;;;6.60;3.03;;;8.30;99.90;;;;;;5052472;28;20854;-69
2022/02/20 04:53:59;;;;;;;3.83;3.53;;;8.20;99.90;;;;;;5052433;28;20408;-69
2022/02/20 04:56:24;;;;;;;4.60;4.20;;;8.30;99.90;;;;;;5051323;28;20455;-69
2022/02/20 04:58:50;;;;;;;4.30;3.90;;;8.30;99.90;;;;;;5052271;28;20445;-69
2022/02/20 05:01:16;;;;;;;3.83;3.53;;;8.30;99.90;;;;;;5051507;28;20184;-69
2022/02/20 05:03:41;;;;;;;3.87;3.57;;;8.30;99.90;;;;;;5050949;28;20526;-69
2022/02/20 05:06:07;;;;;;;4.33;3.93;;;8.10;99.90;;;;;;5051326;28;20308;-69
2022/02/20 05:08:33;;;;;;;4.73;4.27;;;8.40;99.90;;;;;;5052212;28;20173;-69
2022/02/20 05:10:59;;;;;;;5.50;4.43;;;8.40;99.90;;;;;;5051600;28;20174;-69
2022/02/20 05:13:24;;;;;;;8.10;4.50;;;8.50;99.90;;;;;;5051211;28;20424;-69
2022/02/20 05:15:50;;;;;;;4.83;4.40;;;8.70;99.90;;;;;;5052242;28;20182;-69
2022/02/20 05:18:16;;;;;;;5.70;5.10;;;8.50;99.90;;;;;;5050408;28;20170;-69
2022/02/20 05:20:42;;;;;;;4.23;3.90;;;8.50;99.90;;;;;;5052147;28;20271;-69
2022/02/20 05:23:09;;;;;;;5.07;4.60;;;8.50;99.90;;;;;;5051519;28;20185;-70
2022/02/20 05:25:35;;;;;;;6.37;4.50;;;8.50;99.90;;;;;;5051934;28;20472;-69
2022/02/20 05:28:00;;;;;;;5.03;4.60;;;8.60;99.90;;;;;;5051668;28;20888;-69
2022/02/20 05:30:26;;;;;;;4.70;4.30;;;8.50;99.90;;;;;;5050865;28;20545;-69
2022/02/20 05:32:52;;;;;;;5.10;4.60;;;8.50;99.90;;;;;;5051980;28;20598;-69
2022/02/20 05:35:18;;;;;;;7.10;4.10;;;8.50;99.90;;;;;;5050670;28;20186;-69
2022/02/20 05:37:46;;;;;;;7.63;4.83;;;8.60;99.90;;;;;;5051927;28;20178;-69
2022/02/20 05:40:15;;;;;;;6.13;4.47;;;8.60;99.90;;;;;;5051091;28;20420;-69
2022/02/20 05:42:40;;;;;;;6.03;5.40;;;8.60;99.90;;;;;;5051583;28;20995;-69
2022/02/20 05:45:07;;;;;;;6.50;4.37;;;8.60;99.90;;;;;;5051093;28;20550;-76
2022/02/20 05:47:33;;;;;;;6.10;4.90;;;8.60;99.90;;;;;;5050753;28;20205;-69
2022/02/20 05:49:59;;;;;;;5.23;4.70;;;8.60;99.90;;;;;;5050440;28;20851;-69
2022/02/20 05:52:25;;;;;;;5.10;4.63;;;8.60;99.90;;;;;;5050737;28;20423;-69
2022/02/20 05:54:51;;;;;;;7.53;4.40;;;8.60;99.90;;;;;;5051739;28;20470;-69
2022/02/20 05:57:17;;;;;;;6.90;4.80;;;8.70;99.90;;;;;;5051825;28;20413;-69
2022/02/20 05:59:42;;;;;;;5.03;4.53;;;8.70;99.90;;;;;;5055318;28;20235;-69
2022/02/20 06:02:08;;;;;;;5.33;4.53;;;8.70;99.90;;;;;;5054631;28;20188;-70
2022/02/20 06:04:34;;;;;;;8.07;5.70;;;8.70;99.90;;;;;;5054785;28;20210;-69
2022/02/20 06:06:59;;;;;;;6.57;5.50;;;8.80;99.90;;;;;;5055799;28;20176;-69
2022/02/20 06:09:26;;;;;;;10.70;5.40;;;8.80;99.90;;;;;;5054669;28;20614;-69
2022/02/20 06:11:52;;;;;;;11.53;5.97;;;8.80;99.90;;;;;;5055631;28;20272;-69
2022/02/20 06:14:17;;;;;;;6.30;4.60;;;8.70;99.90;;;;;;5054561;28;20511;-69
2022/02/20 06:16:43;;;;;;;8.53;6.10;;;8.70;99.90;;;;;;5054190;28;20693;-69
2022/02/20 06:19:09;;;;;;;7.13;4.97;;;8.80;99.90;;;;;;5052648;28;20256;-70
2022/02/20 06:21:35;;;;;;;6.67;5.00;;;8.80;99.90;;;;;;5054235;28;20232;-68
2022/02/20 06:24:00;;;;;;;5.50;5.00;;;8.80;99.90;;;;;;5054579;28;20428;-68
2022/02/20 06:26:26;;;;;;;5.63;5.03;;;8.80;99.90;;;;;;5053962;28;20277;-68
2022/02/20 06:28:52;;;;;;;9.20;5.97;;;8.60;99.90;;;;;;5055167;28;20224;-68
2022/02/20 06:31:18;;;;;;;8.97;5.70;;;8.60;99.90;;;;;;5054412;28;20524;-67
2022/02/20 06:33:47;;;;;;;13.90;6.07;;;8.70;99.90;;;;;;5055379;28;20209;-68
2022/02/20 06:36:13;;;;;;;7.07;5.37;;;8.60;99.90;;;;;;5054109;28;20472;-68
2022/02/20 06:38:39;;;;;;;6.93;5.77;;;8.60;99.90;;;;;;5054564;28;20431;-68
2022/02/20 06:41:09;;;;;;;8.13;5.57;;;8.60;99.90;;;;;;5054430;28;20420;-68
2022/02/20 06:43:34;;;;;;;9.27;5.30;;;8.70;99.90;;;;;;5054768;28;20412;-68
2022/02/20 06:46:00;;;;;;;11.03;5.63;;;8.60;99.90;;;;;;5055589;28;20542;-68
2022/02/20 06:48:26;;;;;;;9.23;5.03;;;8.70;99.90;;;;;;5070015;28;20189;-68
2022/02/20 06:50:52;;;;;;;7.83;5.60;;;8.80;99.90;;;;;;5054466;28;20215;-68
2022/02/20 06:53:18;;;;;;;7.87;5.40;;;8.50;99.90;;;;;;5052586;28;20427;-68
2022/02/20 06:55:43;;;;;;;7.43;4.80;;;8.50;99.90;;;;;;5053896;28;20192;-68
2022/02/20 06:58:09;;;;;;;7.17;4.70;;;8.50;99.90;;;;;;5052691;28;20181;-76
2022/02/20 07:00:35;;;;;;;8.97;5.20;;;8.60;99.90;;;;;;5052921;28;20227;-73
2022/02/20 07:03:00;;;;;;;6.33;5.00;;;8.50;99.90;;;;;;5054271;28;20672;-68
2022/02/20 07:05:26;;;;;;;9.53;4.93;;;8.60;99.90;;;;;;5052877;28;20202;-68
2022/02/20 07:07:52;;;;;;;6.77;4.93;;;8.50;99.90;;;;;;5053795;28;20185;-68
2022/02/20 07:10:18;;;;;;;11.00;5.03;;;8.30;99.90;;;;;;5052921;28;20173;-68
2022/02/20 07:12:43;;;;;;;9.83;5.80;;;8.10;99.90;;;;;;5054001;28;20174;-69
2022/02/20 07:15:10;;;;;;;9.60;5.60;;;8.20;99.90;;;;;;5051315;28;20193;-77
2022/02/20 07:17:36;;;;;;;8.53;5.80;;;8.10;99.90;;;;;;5053844;28;20187;-68
2022/02/20 07:20:03;;;;;;;12.83;6.20;;;8.10;99.90;;;;;;5053451;28;20487;-68
2022/02/20 07:22:31;;;;;;;11.37;5.80;;;8.10;99.90;;;;;;5053058;28;20431;-69
2022/02/20 07:24:57;;;;;;;6.57;5.27;;;7.90;99.90;;;;;;5053709;28;20816;-69
2022/02/20 07:27:22;;;;;;;6.23;4.90;;;8.20;99.90;;;;;;5052876;28;20420;-69
2022/02/20 07:29:48;;;;;;;6.60;5.43;;;8.40;99.90;;;;;;5053069;28;20808;-69
2022/02/20 07:32:14;;;;;;;5.30;4.83;;;8.40;99.90;;;;;;5052710;28;20227;-71
2022/02/20 07:34:40;;;;;;;6.30;5.13;;;8.30;99.90;;;;;;5053161;28;20223;-69
2022/02/20 07:37:05;;;;;;;5.93;4.90;;;8.40;99.90;;;;;;5051764;28;20181;-69
2022/02/20 07:39:31;;;;;;;5.33;4.70;;;8.50;99.90;;;;;;5049987;28;20180;-69
2022/02/20 07:41:57;;;;;;;6.90;4.63;;;8.50;99.90;;;;;;5050688;28;20254;-68
2022/02/20 07:44:23;;;;;;;5.10;4.33;;;8.50;99.90;;;;;;5052257;28;20178;-68
2022/02/20 07:46:49;;;;;;;8.00;5.03;;;8.60;99.90;;;;;;5051945;28;20184;-68
2022/02/20 07:49:15;;;;;;;9.60;5.30;;;8.70;99.90;;;;;;5051500;28;20935;-72
2022/02/20 07:51:40;;;;;;;5.07;4.67;;;8.90;99.90;;;;;;5050547;28;20505;-70
2022/02/20 07:54:06;;;;;;;11.87;5.40;;;9.30;99.90;;;;;;5052070;28;20196;-71
2022/02/20 07:56:32;;;;;;;4.50;4.17;;;9.50;99.90;;;;;;5051766;28;20365;-73
2022/02/20 07:58:58;;;;;;;5.70;4.20;;;9.80;99.90;;;;;;5053146;28;20189;-73
2022/02/20 08:01:23;;;;;;;4.73;3.80;;;10.10;99.90;;;;;;5051064;28;20686;-74
2022/02/20 08:03:49;;;;;;;5.73;4.00;;;10.30;99.90;;;;;;5052926;28;20634;-71
2022/02/20 08:06:15;;;;;;;9.00;5.23;;;10.40;99.90;;;;;;5050188;28;20226;-78
2022/02/20 08:08:41;;;;;;;4.00;3.70;;;10.50;99.90;;;;;;5052888;28;20182;-69
2022/02/20 08:11:07;;;;;;;5.97;4.97;;;10.60;99.90;;;;;;5052825;28;20424;-70
2022/02/20 08:13:33;;;;;;;4.73;3.90;;;10.70;99.90;;;;;;5051983;28;20279;-71
2022/02/20 08:15:58;;;;;;;8.17;6.33;;;10.60;99.90;;;;;;5052465;28;20841;-70
2022/02/20 08:18:25;;;;;;;5.30;4.43;;;10.60;99.90;;;;;;5052080;28;20200;-70
2022/02/20 08:20:51;;;;;;;4.73;4.33;;;10.50;99.90;;;;;;5052060;28;20216;-70
2022/02/20 08:23:20;;;;;;;8.07;5.20;;;10.70;99.90;;;;;;5050477;28;20426;-71
2022/02/20 08:25:45;;;;;;;5.40;5.00;;;10.40;99.90;;;;;;5052481;28;20565;-70
2022/02/20 08:28:11;;;;;;;9.53;6.80;;;10.50;99.90;;;;;;5053121;28;20489;-70
2022/02/20 08:30:37;;;;;;;7.53;6.50;;;10.60;99.90;;;;;;5051435;28;20235;-71
2022/02/20 08:33:05;;;;;;;4.90;4.53;;;10.60;99.90;;;;;;5051470;28;20442;-69
2022/02/20 08:35:31;;;;;;;250.73;157.17;;;10.40;99.90;;;;;;5051887;28;20216;-67
2022/02/20 08:37:57;;;;;;;58.37;33.87;;;10.20;99.90;;;;;;5051366;28;20978;-67
2022/02/20 08:40:23;;;;;;;18.10;13.00;;;10.10;99.90;;;;;;5050409;28;20429;-68
2022/02/20 08:42:49;;;;;;;5.17;4.67;;;10.00;99.90;;;;;;5052132;28;20192;-68
2022/02/20 08:45:16;;;;;;;3.90;3.70;;;9.90;99.90;;;;;;5050800;28;20461;-74
2022/02/20 08:47:43;;;;;;;4.60;4.20;;;9.80;99.90;;;;;;5052153;28;20212;-68
2022/02/20 08:50:10;;;;;;;23.70;16.97;;;9.80;99.90;;;;;;5052082;28;20424;-68
2022/02/20 08:52:37;;;;;;;5.30;4.90;;;9.70;99.90;;;;;;5050376;28;20412;-68
2022/02/20 08:55:04;;;;;;;4.10;3.70;;;9.80;99.90;;;;;;5051909;28;20428;-69
2022/02/20 08:57:30;;;;;;;4.03;3.80;;;9.70;99.90;;;;;;5051811;28;20772;-68
2022/02/20 08:59:57;;;;;;;4.03;3.73;;;9.70;99.90;;;;;;5051813;28;20425;-68
2022/02/20 09:02:23;;;;;;;3.47;3.30;;;9.70;99.90;;;;;;5050795;28;20453;-69
2022/02/20 09:04:49;;;;;;;5.60;3.80;;;9.80;99.90;;;;;;5051222;28;20535;-68
2022/02/20 09:07:15;;;;;;;4.20;3.90;;;9.70;99.90;;;;;;5052037;28;20498;-75
2022/02/20 09:09:40;;;;;;;4.03;3.50;;;9.60;99.90;;;;;;5051733;28;20507;-68
2022/02/20 09:12:07;;;;;;;3.77;3.67;;;9.60;99.90;;;;;;5051517;28;20515;-67
2022/02/20 09:14:33;;;;;;;4.63;4.30;;;9.60;99.90;;;;;;5049151;28;20617;-68
2022/02/20 09:17:00;;;;;;;4.90;4.40;;;9.60;99.90;;;;;;5052356;28;20441;-68
2022/02/20 09:19:26;;;;;;;4.17;4.07;;;9.80;99.90;;;;;;5050962;28;20415;-68
2022/02/20 09:21:52;;;;;;;4.13;3.93;;;9.80;99.90;;;;;;5052199;28;20444;-68
2022/02/20 09:24:18;;;;;;;4.57;4.17;;;9.80;99.90;;;;;;5051191;28;20413;-75
2022/02/20 09:26:44;;;;;;;4.97;4.67;;;9.80;99.90;;;;;;5050311;28;20417;-68
2022/02/20 09:29:10;;;;;;;6.77;4.80;;;9.80;99.90;;;;;;5034003;28;20438;-68
2022/02/20 09:31:36;;;;;;;4.80;4.30;;;9.80;99.90;;;;;;5051321;28;20408;-68
2022/02/20 09:34:02;;;;;;;6.20;5.70;;;9.70;99.90;;;;;;5055906;28;20847;-67
2022/02/20 09:36:28;;;;;;;5.10;4.80;;;9.80;99.90;;;;;;5055090;28;20180;-68
2022/02/20 09:38:55;;;;;;;5.67;5.27;;;9.80;99.90;;;;;;5056116;28;20769;-68
2022/02/20 09:41:25;;;;;;;5.80;5.43;;;9.90;99.90;;;;;;5054136;28;20408;-70
2022/02/20 09:43:54;;;;;;;4.90;4.60;;;9.80;99.90;;;;;;5054581;28;20771;-68
2022/02/20 09:46:20;;;;;;;5.30;5.00;;;9.90;99.90;;;;;;5055192;28;20453;-76
2022/02/20 09:48:50;;;;;;;45.07;31.13;;;10.00;99.90;;;;;;5054551;28;20534;-68
2022/02/20 09:51:16;;;;;;;69.13;42.33;;;9.90;99.90;;;;;;5054572;28;20419;-68
2022/02/20 09:53:41;;;;;;;4.40;4.10;;;10.00;99.90;;;;;;5054618;28;20435;-68
2022/02/20 09:56:07;;;;;;;4.93;4.63;;;10.00;99.90;;;;;;5054164;28;20185;-70
2022/02/20 09:58:33;;;;;;;4.17;3.87;;;10.00;99.90;;;;;;5060531;28;20213;-70
2022/02/20 10:01:08;;;;;;;4.17;3.87;;;10.10;99.90;;;;;;5059664;28;20199;-70
2022/02/20 10:03:39;;;;;;;5.17;4.20;;;10.10;99.90;;;;;;5055270;28;20196;-70
2022/02/20 10:06:09;;;;;;;4.90;3.70;;;10.00;99.90;;;;;;5074003;28;20539;-69
2022/02/20 10:08:42;;;;;;;4.53;4.03;;;10.10;99.90;;;;;;5070923;28;20402;-70
2022/02/20 10:11:27;;;;;;;4.87;4.47;;;10.10;99.90;;;;;;5048464;28;20424;-70
2022/02/20 10:13:57;;;;;;;4.00;3.80;;;10.10;99.90;;;;;;5052933;28;20912;-70
2022/02/20 10:16:24;;;;;;;4.63;4.23;;;10.10;99.90;;;;;;5053836;28;20418;-74
2022/02/20 10:18:51;;;;;;;150.43;85.80;;;10.10;99.90;;;;;;5054669;28;20766;-69
2022/02/20 10:21:26;;;;;;;16.97;13.03;;;10.10;99.90;;;;;;5053995;28;20498;-70
2022/02/20 10:23:54;;;;;;;5.87;4.97;;;10.10;99.90;;;;;;5053646;28;20414;-70
2022/02/20 10:26:25;;;;;;;4.30;3.90;;;10.20;99.90;;;;;;5052876;28;20642;-73
2022/02/20 10:29:18;;;;;;;5.13;3.80;;;10.20;99.90;;;;;;5053045;28;20762;-70
2022/02/20 10:31:51;;;;;;;3.80;3.50;;;10.30;99.90;;;;;;5052611;28;20428;-70
2022/02/20 10:34:29;;;;;;;4.53;3.40;;;10.30;99.90;;;;;;5051443;28;20422;-70
2022/02/20 10:37:04;;;;;;;2.87;2.70;;;10.30;99.90;;;;;;5050673;28;20422;-73
2022/02/20 10:39:32;;;;;;;3.23;3.00;;;10.30;99.90;;;;;;5051395;28;20407;-70
2022/02/20 10:42:00;;;;;;;3.10;2.90;;;10.40;99.90;;;;;;5052393;28;20425;-70
2022/02/20 10:44:27;;;;;;;2.70;2.60;;;10.40;99.90;;;;;;5050488;28;20496;-70
2022/02/20 10:47:13;;;;;;;3.00;2.90;;;10.50;99.90;;;;;;5052887;28;20482;-73
2022/02/20 10:49:39;;;;;;;2.90;2.80;;;10.40;99.90;;;;;;5050456;28;20426;-70
2022/02/20 10:52:06;;;;;;;3.20;3.00;;;10.50;99.90;;;;;;5051803;28;20406;-70
2022/02/20 10:54:32;;;;;;;3.30;3.20;;;10.50;99.90;;;;;;5053645;28;20422;-69
2022/02/20 10:56:58;;;;;;;3.20;3.00;;;10.50;99.90;;;;;;5052943;28;20763;-70
2022/02/20 10:59:24;;;;;;;3.50;3.27;;;10.50;99.90;;;;;;5051604;28;20182;-72
2022/02/20 11:01:50;;;;;;;3.27;3.10;;;10.50;99.90;;;;;;5050537;28;20501;-70
2022/02/20 11:04:16;;;;;;;4.43;3.50;;;10.50;99.90;;;;;;5056650;28;20268;-70
2022/02/20 11:06:53;;;;;;;4.27;3.97;;;10.60;99.90;;;;;;5051278;28;20503;-70
2022/02/20 11:09:18;;;;;;;3.93;3.73;;;10.50;99.90;;;;;;5052378;28;20912;-70
2022/02/20 11:11:51;;;;;;;4.57;4.17;;;10.50;99.90;;;;;;5052053;28;20441;-69
2022/02/20 11:14:20;;;;;;;83.57;55.23;;;10.50;99.90;;;;;;5053890;28;20178;-69
2022/02/20 11:16:52;;;;;;;6.97;4.93;;;10.50;99.90;;;;;;5052553;28;20458;-70
2022/02/20 11:19:22;;;;;;;5.63;5.13;;;10.70;99.90;;;;;;5051906;28;20515;-70
2022/02/20 11:21:56;;;;;;;4.97;4.27;;;10.60;99.90;;;;;;5052673;28;20445;-70
2022/02/20 11:24:26;;;;;;;5.37;5.03;;;10.60;99.90;;;;;;5051177;28;20850;-79
2022/02/20 11:26:53;;;;;;;4.50;4.00;;;10.70;99.90;;;;;;5050463;28;20416;-71
2022/02/20 11:29:20;;;;;;;6.20;3.80;;;10.70;99.90;;;;;;5052872;28;20428;-69
2022/02/20 11:31:47;;;;;;;5.80;4.30;;;10.70;99.90;;;;;;5051534;28;20418;-70
2022/02/20 11:34:14;;;;;;;8.73;4.13;;;10.80;99.90;;;;;;5052422;28;20483;-70
2022/02/20 11:36:59;;;;;;;6.83;4.77;;;10.70;99.90;;;;;;5052009;28;21322;-68
2022/02/20 11:39:27;;;;;;;4.60;4.20;;;10.80;99.90;;;;;;5052309;28;20446;-72
2022/02/20 11:42:16;;;;;;;4.33;3.93;;;10.90;99.90;;;;;;5050067;28;20424;-68
2022/02/20 11:44:52;;;;;;;4.80;3.57;;;10.90;99.90;;;;;;5050361;28;20451;-71
2022/02/20 11:47:36;;;;;;;3.73;3.43;;;10.90;99.90;;;;;;5051746;28;20434;-67
2022/02/20 11:50:17;;;;;;;8.50;4.50;;;10.90;99.90;;;;;;5050795;28;20420;-68
2022/02/20 11:52:48;;;;;;;3.97;3.60;;;10.90;99.90;;;;;;5050433;28;20399;-68
2022/02/20 11:55:23;;;;;;;4.40;3.40;;;10.90;99.90;;;;;;5051044;28;20462;-67
2022/02/20 11:57:50;;;;;;;5.53;4.07;;;10.90;99.90;;;;;;5051462;28;20421;-67
2022/02/20 12:00:22;;;;;;;4.90;3.93;;;10.90;99.90;;;;;;5058307;28;20424;-68
2022/02/20 12:03:13;;;;;;;3.83;3.40;;;10.90;99.90;;;;;;5050816;28;20427;-67
2022/02/20 12:05:39;;;;;;;3.80;3.50;;;10.90;99.90;;;;;;5049508;28;20454;-67
2022/02/20 12:08:31;;;;;;;4.20;3.80;;;10.90;99.90;;;;;;5051208;28;20420;-68
2022/02/20 12:11:12;;;;;;;7.70;4.50;;;10.90;99.90;;;;;;5050380;28;20170;-67
2022/02/20 12:13:45;;;;;;;5.57;3.70;;;11.00;99.90;;;;;;5048950;28;20781;-67
2022/02/20 12:16:33;;;;;;;5.27;4.67;;;11.00;99.90;;;;;;5049157;28;20435;-68
2022/02/20 12:19:19;;;;;;;5.83;4.77;;;11.00;99.90;;;;;;5050545;28;20465;-68
2022/02/20 12:21:52;;;;;;;6.37;5.80;;;11.00;99.90;;;;;;5049832;28;20488;-68
2022/02/20 12:24:20;;;;;;;5.90;4.60;;;11.00;99.90;;;;;;5051678;28;20424;-68
2022/02/20 12:26:50;;;;;;;5.40;4.23;;;11.00;99.90;;;;;;5050167;28;20484;-68
2022/02/20 12:29:18;;;;;;;5.10;4.80;;;11.10;99.90;;;;;;5050791;28;20414;-68
2022/02/20 12:32:01;;;;;;;4.93;4.60;;;11.10;99.90;;;;;;5051029;28;20431;-69
2022/02/20 12:34:51;;;;;;;4.37;3.97;;;11.10;99.90;;;;;;5049803;28;20415;-68
2022/02/20 12:37:39;;;;;;;4.30;3.90;;;11.10;99.90;;;;;;5049487;28;20459;-67
2022/02/20 12:40:10;;;;;;;5.27;3.37;;;11.10;99.90;;;;;;5048783;28;20472;-67
2022/02/20 12:42:40;;;;;;;4.33;3.20;;;11.10;99.90;;;;;;5048964;28;20409;-68
2022/02/20 12:45:17;;;;;;;3.93;3.50;;;11.20;99.90;;;;;;5049976;28;20491;-68
2022/02/20 12:47:47;;;;;;;6.17;3.73;;;11.10;99.90;;;;;;5050391;28;20405;-67
2022/02/20 12:50:14;;;;;;;85.07;45.13;;;11.20;99.90;;;;;;5051140;28;20407;-68
2022/02/20 12:52:41;;;;;;;63.10;44.93;;;11.20;99.90;;;;;;5046979;28;20479;-69
2022/02/20 12:55:09;;;;;;;3.43;3.13;;;11.20;99.90;;;;;;5049551;28;20424;-67